Messwerte Mannheim

Temperatur

Temperatur
°C
1575576000 21.00 21.00 0
1575579600 22.00 22.00 0
1575583200 23.00 23.00
1575586800 0.00 0.00
1575590400 1.00 1.00
1575594000 2.00 2.00
1575597600 3.00 3.00
1575601200 4.00 4.00 -1
1575604800 5.00 5.00
1575608400 6.00 6.00 -1
1575612000 7.00 7.00 -1
1575615600 8.00 8.00 -1
1575619200 9.00 9.00 0
1575622800 10.00 10.00 0
1575626400 11.00 11.00 1
1575630000 12.00 12.00 2
1575633600 13.00 13.00 3
1575637200 14.00 14.00 4
1575640800 15.00 15.00 4
1575644400 16.00 16.00 4
1575648000 17.00 17.00 4
1575651600 18.00 18.00 5
1575655200 19.00 19.00 5
1575658800 20.00 20.00 5

Aktuellste Messwerte

Wettercharakter
Wetter: bedeckt
Temperatur
6 °C
Feuchtigkeit
75 %
Wind
10 km/hWindrichtung: Süd
Luftdruck
1014 hPa
Messzeit: 6. Dezember 2019, 21.00Datenquelle: METAR

Weitere Messstationen in der Nähe

Messstation Temperatur Entfernung
Neuhofen 9.3 °C 13 km
Dolgesheim 7.2 °C 37 km
Kraichtal 7.6 °C 42 km
Frankfurt am Main 7 °C 59 km
Wiesbaden 6 °C 61 km
Bad Bergzabern 8.4 °C 61 km
Büchelberg 7.8 °C 62 km

Wind

Windrichtung Böen Mittelwind
° km/h km/h
1575576000 21.00 20.00 - 21.00 160° 5
1575579600 22.00 21.00 - 22.00 160° 10
1575583200 23.00 22.00 - 23.00
1575586800 0.00 23.00 - 0.00
1575590400 1.00 0.00 - 1.00
1575594000 2.00 1.00 - 2.00
1575597600 3.00 2.00 - 3.00
1575601200 4.00 3.00 - 4.00 150° 15
1575604800 5.00 4.00 - 5.00
1575608400 6.00 5.00 - 6.00 150° 10
1575612000 7.00 6.00 - 7.00 140° 10
1575615600 8.00 7.00 - 8.00 160° 10
1575619200 9.00 8.00 - 9.00 160° 5
1575622800 10.00 9.00 - 10.00 150° 10
1575626400 11.00 10.00 - 11.00 130° 10
1575630000 12.00 11.00 - 12.00 150° 15
1575633600 13.00 12.00 - 13.00 160° 15
1575637200 14.00 13.00 - 14.00 150° 20
1575640800 15.00 14.00 - 15.00 150° 10
1575644400 16.00 15.00 - 16.00 150° 10
1575648000 17.00 16.00 - 17.00 150° 10
1575651600 18.00 17.00 - 18.00 160° 10
1575655200 19.00 18.00 - 19.00 150° 10
1575658800 20.00 19.00 - 20.00 140° 10

Ihre Wetterstation

Fehlt Ihre Wetterstation auf unserem Portal?

Schreiben Sie an network@meteonews.ch

Klima

Wann ist es am wärmsten? Wann regnet es am wenigsten? Unsere Klimadaten geben Auskunft.